createdAt,value
2017-10-25T00:00:32.013Z,60.90
2017-10-25T00:02:58.210Z,68.00
2017-10-25T00:05:24.397Z,63.30
2017-10-25T00:07:50.601Z,72.60
2017-10-25T00:10:16.798Z,61.50
2017-10-25T00:12:43.738Z,69.73
2017-10-25T00:15:09.961Z,71.83
2017-10-25T00:17:36.169Z,71.87
2017-10-25T00:20:02.366Z,78.40
2017-10-25T00:22:28.568Z,72.60
2017-10-25T00:24:54.746Z,74.03
2017-10-25T00:27:20.922Z,74.47
2017-10-25T00:29:47.148Z,76.40
2017-10-25T00:32:14.069Z,71.43
2017-10-25T00:34:40.305Z,78.30
2017-10-25T00:37:06.484Z,71.97
2017-10-25T00:39:32.697Z,76.00
2017-10-25T00:41:58.908Z,94.40
2017-10-25T00:44:25.860Z,78.80
2017-10-25T00:46:52.050Z,90.63
2017-10-25T00:49:18.263Z,89.43
2017-10-25T00:51:44.450Z,92.53
2017-10-25T00:54:10.689Z,90.97
2017-10-25T00:56:36.890Z,87.23
2017-10-25T00:59:03.821Z,79.83
2017-10-25T01:01:30.833Z,77.07
2017-10-25T01:03:57.025Z,85.87
2017-10-25T01:06:23.245Z,89.03
2017-10-25T01:08:50.194Z,101.20
2017-10-25T01:11:16.444Z,92.33
2017-10-25T01:13:42.641Z,90.30
2017-10-25T01:16:09.613Z,93.43
2017-10-25T01:18:35.892Z,97.50
2017-10-25T01:21:02.130Z,97.83
2017-10-25T01:23:29.079Z,108.17
2017-10-25T01:25:56.053Z,91.70
2017-10-25T01:28:22.257Z,93.60
2017-10-25T01:30:49.225Z,86.37
2017-10-25T01:33:15.448Z,103.00
2017-10-25T01:35:41.677Z,101.93
2017-10-25T01:38:07.889Z,111.20
2017-10-25T01:40:34.898Z,97.77
2017-10-25T01:43:01.110Z,99.77
2017-10-25T01:45:27.330Z,101.60
2017-10-25T01:47:53.572Z,107.67
2017-10-25T01:50:19.801Z,104.07
2017-10-25T01:52:46.029Z,104.10
2017-10-25T01:55:12.241Z,102.70
2017-10-25T01:57:38.723Z,97.20
2017-10-25T02:00:05.698Z,98.67
2017-10-25T02:02:31.893Z,95.40
2017-10-25T02:04:58.114Z,89.47
2017-10-25T02:07:25.086Z,92.00
2017-10-25T02:09:52.050Z,83.93
2017-10-25T02:12:18.241Z,84.83
2017-10-25T02:14:44.470Z,80.83
2017-10-25T02:17:11.421Z,78.93
2017-10-25T02:19:38.397Z,84.23
2017-10-25T02:22:04.624Z,75.30
2017-10-25T02:24:30.858Z,65.60
2017-10-25T02:26:57.065Z,74.13
2017-10-25T02:29:24.022Z,69.57
2017-10-25T02:31:50.231Z,60.90
2017-10-25T02:34:17.197Z,69.40
2017-10-25T02:36:43.385Z,67.67
2017-10-25T02:39:09.589Z,56.20
2017-10-25T02:41:35.854Z,56.83
2017-10-25T02:44:02.794Z,57.40
2017-10-25T02:46:29.753Z,56.83
2017-10-25T02:48:56.757Z,56.30
2017-10-25T02:51:22.974Z,55.47
2017-10-25T02:53:49.165Z,49.97
2017-10-25T02:56:15.373Z,49.97
2017-10-25T02:58:42.289Z,49.30
2017-10-25T03:01:08.513Z,54.43
2017-10-25T03:03:34.718Z,50.23
2017-10-25T03:06:00.929Z,48.47
2017-10-25T03:08:27.121Z,39.07
2017-10-25T03:10:53.480Z,43.33
2017-10-25T03:13:19.703Z,49.90
2017-10-25T03:15:45.927Z,44.27
2017-10-25T03:18:12.877Z,49.60
2017-10-25T03:20:39.173Z,44.63
2017-10-25T03:23:05.434Z,48.90
2017-10-25T03:25:31.643Z,48.90
2017-10-25T03:27:57.933Z,42.20
2017-10-25T03:30:24.126Z,53.43
2017-10-25T03:32:50.349Z,40.90
2017-10-25T03:35:17.286Z,35.33
2017-10-25T03:37:44.237Z,36.30
2017-10-25T03:40:10.431Z,36.83
2017-10-25T03:42:36.677Z,37.90
2017-10-25T03:45:03.629Z,29.50
2017-10-25T03:47:30.582Z,28.27
2017-10-25T03:49:57.526Z,27.50
2017-10-25T03:52:24.476Z,23.70
2017-10-25T03:54:50.685Z,24.80
2017-10-25T03:57:17.662Z,27.17
2017-10-25T03:59:43.857Z,22.13
2017-10-25T04:02:10.801Z,20.27
2017-10-25T04:04:37.820Z,23.57
2017-10-25T04:07:04.747Z,22.90
2017-10-25T04:09:30.956Z,22.13
2017-10-25T04:11:57.209Z,18.53
2017-10-25T04:14:23.418Z,21.23
2017-10-25T04:16:49.605Z,21.23
2017-10-25T04:19:16.545Z,20.13
2017-10-25T04:21:42.725Z,24.97
2017-10-25T04:24:08.968Z,22.50
2017-10-25T04:26:35.161Z,20.17
2017-10-25T04:29:01.389Z,20.00
2017-10-25T04:31:27.591Z,21.07
2017-10-25T04:33:54.557Z,20.47
2017-10-25T04:36:20.754Z,22.37
2017-10-25T04:38:46.968Z,23.70
2017-10-25T04:41:13.180Z,24.60
2017-10-25T04:43:39.425Z,24.50
2017-10-25T04:46:05.609Z,24.13
2017-10-25T04:48:31.820Z,22.73
2017-10-25T04:50:58.762Z,20.57
2017-10-25T04:53:25.721Z,18.60
2017-10-25T04:55:51.928Z,18.13
2017-10-25T04:58:18.876Z,20.67
2017-10-25T05:00:45.793Z,17.93
2017-10-25T05:03:12.010Z,16.77
2017-10-25T05:05:38.198Z,19.50
2017-10-25T05:08:04.401Z,20.17
2017-10-25T05:10:31.316Z,16.03
2017-10-25T05:12:57.517Z,18.20
2017-10-25T05:15:23.701Z,16.10
2017-10-25T05:17:50.646Z,17.43
2017-10-25T05:20:17.582Z,17.47
2017-10-25T05:22:44.550Z,13.13
2017-10-25T05:25:10.800Z,14.00
2017-10-25T05:27:37.004Z,15.60
2017-10-25T05:30:03.245Z,13.80
2017-10-25T05:32:29.485Z,14.53
2017-10-25T05:34:55.690Z,15.57
2017-10-25T05:37:21.930Z,21.47
2017-10-25T05:39:48.153Z,15.50
2017-10-25T05:42:14.374Z,15.23
2017-10-25T05:44:40.685Z,15.57
2017-10-25T05:47:07.619Z,17.47
2017-10-25T05:49:34.603Z,13.87
2017-10-25T05:52:00.789Z,13.97
2017-10-25T05:54:27.018Z,15.27
2017-10-25T05:56:53.210Z,13.53
2017-10-25T05:59:19.426Z,13.10
2017-10-25T06:01:45.637Z,13.33
2017-10-25T06:04:11.898Z,13.03
2017-10-25T06:06:38.421Z,12.87
2017-10-25T06:09:04.666Z,17.33
2017-10-25T06:11:30.872Z,13.27
2017-10-25T06:13:57.341Z,15.67
2017-10-25T06:16:23.530Z,11.03
2017-10-25T06:18:49.713Z,14.57
2017-10-25T06:21:15.929Z,15.70
2017-10-25T06:23:42.413Z,10.07
2017-10-25T06:26:08.618Z,9.10
2017-10-25T06:28:35.546Z,9.10
2017-10-25T06:31:01.781Z,11.53
2017-10-25T06:33:27.968Z,12.53
2017-10-25T06:35:54.192Z,12.63
2017-10-25T06:38:20.389Z,11.40
2017-10-25T06:40:46.697Z,11.20
2017-10-25T06:43:13.677Z,9.90
2017-10-25T06:45:39.973Z,9.43
2017-10-25T06:48:06.938Z,9.80
2017-10-25T06:50:33.161Z,10.73
2017-10-25T06:53:00.107Z,11.50
2017-10-25T06:55:26.314Z,14.20
2017-10-25T06:57:52.517Z,9.40
2017-10-25T07:00:18.729Z,8.80
2017-10-25T07:02:44.917Z,10.43
2017-10-25T07:05:11.869Z,11.63
2017-10-25T07:07:38.049Z,9.63
2017-10-25T07:10:04.265Z,10.57
2017-10-25T07:12:30.457Z,10.27
2017-10-25T07:14:56.637Z,9.60
2017-10-25T07:17:22.854Z,10.73
2017-10-25T07:19:49.048Z,8.93
2017-10-25T07:22:15.257Z,9.80
2017-10-25T07:24:41.441Z,9.90
2017-10-25T07:27:08.381Z,12.30
2017-10-25T07:29:34.573Z,9.70
2017-10-25T07:32:00.807Z,8.67
2017-10-25T07:34:26.996Z,9.60
2017-10-25T07:36:53.933Z,8.97
2017-10-25T07:39:20.138Z,10.20
2017-10-25T07:41:46.373Z,9.30
2017-10-25T07:44:12.574Z,15.67
2017-10-25T07:46:38.754Z,9.80
2017-10-25T07:49:05.705Z,10.60
2017-10-25T07:51:32.638Z,11.43
2017-10-25T07:53:59.593Z,16.20
2017-10-25T07:56:26.529Z,12.50
2017-10-25T07:58:53.491Z,11.90
2017-10-25T08:01:20.426Z,14.43
2017-10-25T08:03:47.377Z,10.83
2017-10-25T08:06:14.305Z,11.43
2017-10-25T08:08:41.278Z,14.00
2017-10-25T08:11:07.454Z,12.73
2017-10-25T08:13:33.700Z,22.33
2017-10-25T08:15:59.894Z,16.40
2017-10-25T08:18:26.101Z,12.87
2017-10-25T08:20:52.293Z,11.90
2017-10-25T08:23:19.280Z,13.70
2017-10-25T08:25:45.480Z,14.00
2017-10-25T08:28:12.437Z,12.27
2017-10-25T08:30:38.630Z,15.50
2017-10-25T08:33:04.836Z,14.07
2017-10-25T08:35:31.018Z,11.47
2017-10-25T08:37:57.232Z,13.20
2017-10-25T08:40:23.511Z,13.97
2017-10-25T08:42:49.729Z,14.37
2017-10-25T08:45:15.938Z,12.80
2017-10-25T08:47:42.186Z,13.10
2017-10-25T08:50:08.432Z,11.30
2017-10-25T08:52:34.660Z,14.00
2017-10-25T08:55:00.859Z,10.70
2017-10-25T08:57:27.066Z,9.70
2017-10-25T08:59:53.311Z,8.80
2017-10-25T09:02:19.534Z,11.27
2017-10-25T09:04:45.740Z,10.07
2017-10-25T09:07:12.679Z,9.63
2017-10-25T09:09:39.677Z,5.50
2017-10-25T09:12:05.878Z,8.40
2017-10-25T09:14:32.114Z,8.97
2017-10-25T09:16:58.319Z,9.83
2017-10-25T09:19:25.273Z,9.57
2017-10-25T09:21:51.480Z,13.47
2017-10-25T09:24:18.457Z,9.60
2017-10-25T09:26:44.646Z,8.90
2017-10-25T09:29:10.866Z,7.60
2017-10-25T09:31:37.061Z,8.00
2017-10-25T09:34:03.297Z,6.00
2017-10-25T09:36:29.505Z,13.20
2017-10-25T09:38:55.721Z,9.83
2017-10-25T09:41:21.964Z,8.90
2017-10-25T09:43:48.221Z,8.90
2017-10-25T09:46:14.410Z,8.17
2017-10-25T09:48:40.666Z,7.00
2017-10-25T09:51:06.931Z,14.77
2017-10-25T09:53:33.123Z,6.30
2017-10-25T09:55:59.337Z,6.57
2017-10-25T09:58:25.577Z,6.90
2017-10-25T10:00:52.619Z,8.27
2017-10-25T10:03:18.862Z,5.97
2017-10-25T10:05:45.087Z,8.90
2017-10-25T10:08:11.286Z,6.20
2017-10-25T10:10:37.525Z,6.33
2017-10-25T10:13:03.713Z,9.67
2017-10-25T10:15:30.701Z,5.57
2017-10-25T10:17:56.937Z,13.03
2017-10-25T10:20:23.185Z,6.60
2017-10-25T10:22:49.394Z,5.77
2017-10-25T10:25:15.637Z,5.30
2017-10-25T10:27:42.623Z,9.77
2017-10-25T10:30:09.606Z,7.10
2017-10-25T10:32:35.837Z,8.90
2017-10-25T10:35:02.081Z,4.63
2017-10-25T10:37:28.297Z,6.73
2017-10-25T10:39:54.528Z,12.10
2017-10-25T10:42:20.765Z,7.17
2017-10-25T10:44:47.013Z,9.47
2017-10-25T10:47:13.253Z,17.80
2017-10-25T10:49:40.220Z,13.20
2017-10-25T10:52:07.171Z,8.03
2017-10-25T10:54:33.381Z,8.47
2017-10-25T10:56:59.561Z,6.93
2017-10-25T10:59:25.816Z,9.23
2017-10-25T11:01:52.040Z,8.43
2017-10-25T11:04:18.270Z,12.77
2017-10-25T11:06:44.546Z,6.80
2017-10-25T11:09:10.742Z,6.20
2017-10-25T11:11:37.718Z,8.03
2017-10-25T11:14:03.904Z,9.97
2017-10-25T11:16:30.151Z,7.93
2017-10-25T11:18:57.107Z,10.37
2017-10-25T11:21:24.081Z,8.47
2017-10-25T11:23:50.289Z,5.70
2017-10-25T11:26:16.497Z,8.70
2017-10-25T11:28:43.464Z,7.70
2017-10-25T11:31:09.814Z,9.80
2017-10-25T11:33:36.043Z,9.27
2017-10-25T11:36:02.273Z,8.30
2017-10-25T11:38:28.518Z,7.03
2017-10-25T11:40:54.750Z,8.53
2017-10-25T11:43:20.970Z,11.60
2017-10-25T11:45:47.186Z,7.73
2017-10-25T11:48:13.414Z,13.33
2017-10-25T11:50:39.625Z,6.20
2017-10-25T11:53:05.852Z,8.73
2017-10-25T11:55:32.069Z,10.80
2017-10-25T11:57:58.269Z,7.53
2017-10-25T12:00:24.457Z,6.80
2017-10-25T12:02:50.666Z,8.27
2017-10-25T12:05:16.878Z,6.97
2017-10-25T12:07:43.868Z,10.53
2017-10-25T12:10:10.123Z,12.23
2017-10-25T12:12:36.390Z,9.07
2017-10-25T12:15:02.665Z,9.03
2017-10-25T12:17:28.858Z,7.33
2017-10-25T12:19:55.073Z,10.73
2017-10-25T12:22:21.331Z,11.63
2017-10-25T12:24:47.638Z,6.17
2017-10-25T12:27:13.948Z,12.00
2017-10-25T12:29:40.905Z,7.97
2017-10-25T12:32:07.106Z,8.73
2017-10-25T12:34:33.323Z,6.00
2017-10-25T12:36:59.515Z,10.50
2017-10-25T12:39:25.776Z,5.63
2017-10-25T12:41:51.985Z,8.60
2017-10-25T12:44:18.225Z,18.87
2017-10-25T12:46:44.437Z,8.07
2017-10-25T12:49:10.629Z,10.13
2017-10-25T12:51:36.853Z,8.97
2017-10-25T12:54:03.038Z,9.43
2017-10-25T12:56:29.255Z,10.00
2017-10-25T12:58:55.454Z,10.17
2017-10-25T13:01:21.673Z,7.70
2017-10-25T13:03:47.888Z,8.97
2017-10-25T13:06:14.131Z,17.77
2017-10-25T13:08:40.335Z,8.47
2017-10-25T13:11:25.544Z,11.57
2017-10-25T13:13:56.422Z,14.10
2017-10-25T13:16:26.712Z,14.30
2017-10-25T13:18:52.913Z,10.00
2017-10-25T13:21:19.137Z,10.13
2017-10-25T13:23:45.340Z,15.37
2017-10-25T13:26:11.563Z,9.70
2017-10-25T13:28:37.766Z,14.17
2017-10-25T13:31:03.986Z,10.50
2017-10-25T13:33:30.217Z,11.80
2017-10-25T13:35:56.425Z,12.03
2017-10-25T13:38:22.654Z,9.20
2017-10-25T13:40:48.888Z,9.23
2017-10-25T13:43:15.122Z,9.03
2017-10-25T13:45:41.325Z,10.97
2017-10-25T13:48:07.538Z,8.70
2017-10-25T13:50:34.486Z,10.10
2017-10-25T13:53:01.444Z,11.50
2017-10-25T13:55:27.641Z,12.33
2017-10-25T13:57:53.853Z,13.97
2017-10-25T14:00:20.062Z,10.50
2017-10-25T14:02:46.370Z,10.60
2017-10-25T14:05:12.592Z,14.70
2017-10-25T14:07:38.930Z,13.93
2017-10-25T14:10:05.126Z,15.60
2017-10-25T14:12:32.078Z,17.97
2017-10-25T14:14:58.302Z,22.17
2017-10-25T14:17:25.238Z,21.20
2017-10-25T14:19:52.234Z,16.97
2017-10-25T14:22:18.434Z,21.10
2017-10-25T14:24:44.660Z,20.83
2017-10-25T14:27:23.201Z,29.40
2017-10-25T14:29:49.412Z,23.70
2017-10-25T14:32:15.601Z,29.63
2017-10-25T14:34:41.843Z,29.27
2017-10-25T14:37:08.042Z,22.70
2017-10-25T14:39:34.317Z,26.57
2017-10-25T14:42:00.516Z,29.00
2017-10-25T14:44:27.491Z,25.77
2017-10-25T14:46:53.694Z,25.30
2017-10-25T14:49:20.679Z,22.17
2017-10-25T14:51:46.883Z,22.97
2017-10-25T14:54:13.837Z,26.63
2017-10-25T14:56:40.041Z,23.03
2017-10-25T14:59:07.016Z,25.90
2017-10-25T15:01:33.222Z,26.27
2017-10-25T15:04:00.180Z,30.43
2017-10-25T15:06:26.397Z,37.57
2017-10-25T15:08:53.369Z,24.70
2017-10-25T15:11:19.566Z,24.87
2017-10-25T15:13:46.557Z,24.07
2017-10-25T15:16:12.743Z,20.77
2017-10-25T15:18:39.815Z,22.80
2017-10-25T15:21:06.010Z,20.93
2017-10-25T15:23:32.977Z,24.70
2017-10-25T15:25:59.183Z,21.70
2017-10-25T15:28:26.121Z,20.87
2017-10-25T15:30:52.345Z,19.00
2017-10-25T15:33:18.549Z,22.80
2017-10-25T15:35:44.757Z,18.13
2017-10-25T15:38:10.953Z,24.47
2017-10-25T15:40:37.947Z,21.43
2017-10-25T15:43:04.132Z,23.97
2017-10-25T15:45:31.089Z,20.50
2017-10-25T15:47:57.281Z,23.83
2017-10-25T15:50:23.484Z,20.07
2017-10-25T15:52:49.669Z,18.90
2017-10-25T15:55:15.993Z,23.27
2017-10-25T15:57:42.194Z,18.27
2017-10-25T16:00:08.373Z,26.40
2017-10-25T16:02:34.993Z,16.70
2017-10-25T16:05:01.230Z,23.53
2017-10-25T16:07:29.462Z,17.30
2017-10-25T16:09:56.387Z,21.63
2017-10-25T16:12:22.652Z,18.93
2017-10-25T16:14:49.603Z,23.10
2017-10-25T16:17:15.813Z,20.10
2017-10-25T16:19:42.745Z,17.47
2017-10-25T16:22:08.994Z,19.13
2017-10-25T16:24:35.942Z,17.83
2017-10-25T16:27:02.941Z,19.20
2017-10-25T16:29:29.140Z,20.20
2017-10-25T16:31:55.373Z,29.97
2017-10-25T16:34:21.654Z,17.50
2017-10-25T16:36:47.861Z,21.10
2017-10-25T16:39:14.104Z,21.53
2017-10-25T16:41:40.326Z,22.93
2017-10-25T16:44:06.546Z,27.03
2017-10-25T16:46:32.741Z,21.40
2017-10-25T16:48:58.953Z,21.10
2017-10-25T16:51:25.158Z,30.30
2017-10-25T16:53:52.118Z,20.53
2017-10-25T16:56:19.059Z,24.97
2017-10-25T16:58:46.014Z,20.00
2017-10-25T17:01:12.257Z,24.40
2017-10-25T17:03:38.513Z,19.57
2017-10-25T17:06:04.722Z,22.43
2017-10-25T17:08:30.936Z,27.33
2017-10-25T17:10:57.134Z,21.20
2017-10-25T17:13:23.394Z,21.80
2017-10-25T17:15:49.597Z,22.90
2017-10-25T17:18:16.530Z,24.60
2017-10-25T17:20:42.742Z,26.47
2017-10-25T17:23:08.926Z,22.80
2017-10-25T17:25:35.145Z,23.40
2017-10-25T17:28:01.794Z,19.00
2017-10-25T17:30:28.014Z,20.77
2017-10-25T17:32:54.229Z,25.80
2017-10-25T17:35:21.189Z,24.57
2017-10-25T17:37:47.382Z,20.83
2017-10-25T17:40:14.405Z,24.57
2017-10-25T17:42:40.617Z,26.20
2017-10-25T17:45:06.827Z,24.00
2017-10-25T17:47:33.067Z,24.43
2017-10-25T17:49:59.353Z,24.90
2017-10-25T17:52:26.300Z,26.43
2017-10-25T17:54:53.259Z,27.30
2017-10-25T17:57:19.489Z,27.50
2017-10-25T17:59:45.701Z,19.83
2017-10-25T18:02:12.625Z,24.17
2017-10-25T18:04:38.876Z,26.60
2017-10-25T18:07:06.390Z,28.23
2017-10-25T18:09:32.658Z,28.60
2017-10-25T18:11:59.618Z,26.70
2017-10-25T18:14:25.825Z,35.37
2017-10-25T18:16:52.002Z,31.50
2017-10-25T18:19:18.230Z,31.70
2017-10-25T18:21:44.490Z,30.07
2017-10-25T18:24:12.236Z,39.17
2017-10-25T18:26:38.465Z,38.53
2017-10-25T18:29:04.686Z,33.33
2017-10-25T18:31:31.035Z,36.30
2017-10-25T18:33:57.499Z,36.50
2017-10-25T18:36:23.694Z,31.10
2017-10-25T18:38:50.029Z,36.70
2017-10-25T18:41:16.249Z,38.20
2017-10-25T18:43:42.455Z,34.67
2017-10-25T18:46:08.705Z,37.60
2017-10-25T18:48:34.929Z,38.13
2017-10-25T18:51:01.174Z,35.17
2017-10-25T18:53:27.378Z,30.10
2017-10-25T18:55:53.605Z,35.13
2017-10-25T18:58:19.803Z,33.67
2017-10-25T19:00:56.417Z,35.73
2017-10-25T19:03:24.211Z,32.13
2017-10-25T19:05:50.535Z,40.10
2017-10-25T19:08:18.681Z,38.50
2017-10-25T19:10:44.872Z,34.17
2017-10-25T19:13:11.110Z,37.93
2017-10-25T19:15:37.346Z,35.80
2017-10-25T19:18:03.557Z,37.20
2017-10-25T19:20:29.741Z,33.20
2017-10-25T19:22:55.958Z,34.70
2017-10-25T19:25:22.189Z,34.20
2017-10-25T19:27:48.396Z,33.17
2017-10-25T19:30:14.578Z,33.83
2017-10-25T19:32:41.618Z,35.43
2017-10-25T19:35:08.553Z,37.07
2017-10-25T19:37:34.765Z,31.60
2017-10-25T19:40:00.982Z,38.83
2017-10-25T19:42:27.214Z,38.97
2017-10-25T19:44:53.408Z,36.50
2017-10-25T19:47:19.635Z,45.47
2017-10-25T19:49:45.831Z,44.33
2017-10-25T19:52:12.911Z,42.00
2017-10-25T19:54:39.110Z,37.93
2017-10-25T19:57:06.077Z,41.33
2017-10-25T19:59:32.270Z,39.90
2017-10-25T20:01:58.594Z,36.17
2017-10-25T20:04:24.788Z,35.23
2017-10-25T20:06:50.983Z,44.33
2017-10-25T20:09:17.198Z,40.30
2017-10-25T20:11:44.146Z,45.30
2017-10-25T20:14:11.083Z,35.77
2017-10-25T20:16:38.029Z,44.90
2017-10-25T20:19:04.965Z,52.47
2017-10-25T20:21:31.178Z,47.33
2017-10-25T20:23:57.386Z,43.93
2017-10-25T20:26:23.597Z,43.07
2017-10-25T20:28:49.794Z,42.80
2017-10-25T20:31:16.803Z,47.43
2017-10-25T20:33:42.993Z,44.43
2017-10-25T20:36:09.182Z,44.70
2017-10-25T20:38:36.133Z,42.47
2017-10-25T20:41:03.089Z,44.57
2017-10-25T20:43:30.042Z,49.93
2017-10-25T20:45:56.233Z,42.67
2017-10-25T20:48:22.446Z,52.10
2017-10-25T20:50:49.959Z,41.33
2017-10-25T20:53:16.192Z,67.70
2017-10-25T20:55:42.390Z,43.50
2017-10-25T20:58:09.347Z,42.03
2017-10-25T21:00:36.302Z,43.07
2017-10-25T21:03:02.978Z,53.13
2017-10-25T21:05:29.219Z,46.27
2017-10-25T21:07:55.410Z,42.40
2017-10-25T21:10:21.639Z,39.63
2017-10-25T21:12:47.897Z,45.70
2017-10-25T21:15:14.109Z,42.63
2017-10-25T21:17:40.298Z,49.60
2017-10-25T21:20:06.515Z,45.37
2017-10-25T21:22:33.408Z,46.37
2017-10-25T21:24:59.620Z,54.40
2017-10-25T21:27:25.933Z,39.87
2017-10-25T21:29:52.169Z,49.37
2017-10-25T21:32:18.374Z,45.80
2017-10-25T21:34:45.309Z,56.03
2017-10-25T21:37:11.522Z,50.30
2017-10-25T21:39:37.738Z,48.17
2017-10-25T21:42:03.981Z,55.47
2017-10-25T21:44:30.170Z,63.93
2017-10-25T21:46:56.417Z,58.60
2017-10-25T21:49:23.344Z,49.43
2017-10-25T21:51:49.568Z,64.27
2017-10-25T21:54:15.751Z,75.53
2017-10-25T21:56:41.953Z,61.20
2017-10-25T21:59:08.150Z,60.07
2017-10-25T22:01:34.457Z,62.57
2017-10-25T22:04:01.397Z,62.57
2017-10-25T22:06:28.374Z,65.30
2017-10-25T22:08:54.566Z,61.90
2017-10-25T22:11:21.529Z,64.10
2017-10-25T22:13:47.718Z,58.57
2017-10-25T22:16:13.970Z,56.57
2017-10-25T22:18:40.899Z,59.97
2017-10-25T22:21:07.854Z,63.87
2017-10-25T22:23:34.786Z,60.90
2017-10-25T22:26:01.754Z,64.53
2017-10-25T22:28:28.691Z,56.17
2017-10-25T22:30:55.672Z,56.23
2017-10-25T22:33:21.878Z,56.83
2017-10-25T22:35:48.070Z,56.73
2017-10-25T22:38:14.286Z,67.23
2017-10-25T22:40:40.519Z,45.83
2017-10-25T22:43:06.738Z,49.43
2017-10-25T22:45:33.386Z,51.27
2017-10-25T22:48:01.094Z,53.13
2017-10-25T22:50:27.277Z,48.47
2017-10-25T22:52:53.492Z,47.77
2017-10-25T22:55:19.704Z,47.37
2017-10-25T22:57:45.950Z,39.67
2017-10-25T23:00:12.166Z,46.73
2017-10-25T23:02:38.403Z,52.00
2017-10-25T23:05:04.598Z,42.60
2017-10-25T23:07:30.845Z,41.33
2017-10-25T23:09:57.052Z,38.60
2017-10-25T23:12:23.263Z,41.73
2017-10-25T23:14:50.207Z,37.27
2017-10-25T23:17:17.154Z,43.67
2017-10-25T23:19:44.083Z,35.97
2017-10-25T23:22:10.304Z,44.90
2017-10-25T23:24:36.502Z,41.17
2017-10-25T23:27:02.721Z,29.80
2017-10-25T23:29:28.925Z,31.60
2017-10-25T23:31:55.192Z,38.63
2017-10-25T23:34:21.409Z,42.73
2017-10-25T23:36:47.607Z,40.47
2017-10-25T23:39:13.830Z,31.50
2017-10-25T23:41:40.056Z,32.30
2017-10-25T23:44:06.237Z,34.33
2017-10-25T23:46:32.450Z,38.60
2017-10-25T23:48:58.653Z,40.07
2017-10-25T23:51:24.882Z,41.77
2017-10-25T23:53:51.069Z,33.33
2017-10-25T23:56:17.294Z,39.73
2017-10-25T23:58:43.493Z,40.20
